Time;durP1;ratioP1;P1;durP2;ratioP2;P2;SDS_P1;SDS_P2;PMS_P1;PMS_P2;Temp;Humidity;BMP_temperature;BMP_pressure;BME280_temperature;BME280_humidity;BME280_pressure;Samples;Min_cycle;Max_cycle;Signal;HPM_P1;HPM_P2
2022/01/27 00:01:01;;;;;;;;;;;;;;;;;;5094357;28;20310;-58
2022/01/27 00:03:31;;;;;;;;;;;;;;;;;;5094241;28;19924;-59
2022/01/27 00:06:02;;;;;;;;;;;;;;;;;;5093565;28;19960;-58
2022/01/27 00:08:31;;;;;;;;;;;;;;;;;;5094056;28;19924;-58
2022/01/27 00:11:00;;;;;;;;;;;;;;;;;;5093426;28;19964;-58
2022/01/27 00:13:29;;;;;;;;;;;;;;;;;;5093826;28;19981;-59
2022/01/27 00:16:10;;;;;;;;;;;;;;;;;;5094309;28;19924;-59
2022/01/27 00:18:37;;;;;;;;;;;;;;;;;;5093226;28;19932;-59
2022/01/27 00:21:03;;;;;;;;;;;;;;;;;;5094088;28;20386;-59
2022/01/27 00:23:29;;;;;;;;;;;;;;;;;;5093037;28;19970;-59
2022/01/27 00:25:55;;;;;;;;;;;;;;;;;;5093208;28;20355;-59
2022/01/27 00:28:21;;;;;;;;;;;;;;;;;;5093805;28;19928;-59
2022/01/27 00:30:47;;;;;;;;;;;;;;;;;;5093313;28;20425;-58
2022/01/27 00:33:13;;;;;;;;;;;;;;;;;;5092858;28;19961;-59
2022/01/27 00:35:39;;;;;;;;;;;;;;;;;;5093542;28;19928;-58
2022/01/27 00:38:05;;;;;;;;;;;;;;;;;;5093579;28;20459;-59
2022/01/27 00:40:31;;;;;;;;;;;;;;;;;;5092878;28;19977;-59
2022/01/27 00:42:57;;;;;;;;;;;;;;;;;;5093754;28;19928;-59
2022/01/27 00:45:25;;;;;;;;;;;;;;;;;;5093606;28;19927;-59
2022/01/27 00:47:51;;;;;;;;;;;;;;;;;;5092802;28;20286;-59
2022/01/27 00:50:18;;;;;;;;;;;;;;;;;;5093400;28;20374;-59
2022/01/27 00:52:48;;;;;;;;;;;;;;;;;;5093020;28;20294;-59
2022/01/27 00:55:15;;;;;;;;;;;;;;;;;;5093482;28;19985;-58
2022/01/27 00:57:59;;;;;;;;;;;;;;;;;;5093047;28;19924;-58
2022/01/27 01:00:30;;;;;;;;;;;;;;;;;;5092302;28;20434;-58
2022/01/27 01:02:57;;;;;;;;;;;;;;;;;;5092138;28;19955;-58
2022/01/27 01:05:41;;;;;;;;;;;;;;;;;;5093078;28;19981;-58
2022/01/27 01:08:40;;;;;;;;;;;;;;;;;;5092438;28;19930;-58
2022/01/27 01:16:45;;;;;;;;;;;;;;;;;;5066147;28;19931;-59
2022/01/27 01:19:20;;;;;;;;;;;;;;;;;;5092834;28;20295;-59
2022/01/27 01:22:04;;;;;;;;;;;;;;;;;;5091730;28;19985;-59
2022/01/27 01:30:09;;;;;;;;;;;;;;;;;;5092088;28;19934;-59
2022/01/27 01:32:43;;;;;;;;;;;;;;;;;;5092523;28;19924;-59
2022/01/27 01:35:10;;;;;;;;;;;;;;;;;;5091968;28;19924;-59
2022/01/27 01:37:39;;;;;;;;;;;;;;;;;;5092284;28;19924;-59
2022/01/27 01:40:05;;;;;;;;;;;;;;;;;;5092663;28;19924;-58
2022/01/27 01:42:31;;;;;;;;;;;;;;;;;;5091375;28;19951;-59
2022/01/27 01:44:57;;;;;;;;;;;;;;;;;;5092462;28;19924;-59
2022/01/27 01:47:25;;;;;;;;;;;;;;;;;;5092382;28;19928;-59
2022/01/27 01:49:51;;;;;;;;;;;;;;;;;;5091894;28;19978;-59
2022/01/27 01:52:17;;;;;;;;;;;;;;;;;;5092180;28;20408;-59
2022/01/27 01:54:43;;;;;;;;;;;;;;;;;;5092129;28;19959;-58
2022/01/27 01:57:09;;;;;;;;;;;;;;;;;;5091467;28;20375;-59
2022/01/27 01:59:35;;;;;;;;;;;;;;;;;;5092101;28;19928;-59
2022/01/27 02:02:01;;;;;;;;;;;;;;;;;;5071975;28;20371;-58
2022/01/27 02:04:27;;;;;;;;;;;;;;;;;;5070887;28;19974;-59
2022/01/27 02:06:57;;;;;;;;;;;;;;;;;;5071641;28;20391;-59
2022/01/27 02:09:35;;;;;;;;;;;;;;;;;;5071768;28;20023;-59
2022/01/27 02:20:13;;;;;;;;;;;;;;;;;;5071688;28;20022;-58
2022/01/27 02:22:39;;;;;;;;;;;;;;;;;;5071374;28;19929;-58
2022/01/27 02:25:07;;;;;;;;;;;;;;;;;;5070393;28;21433;-58
2022/01/27 02:27:33;;;;;;;;;;;;;;;;;;5071468;28;19928;-59
2022/01/27 02:29:59;;;;;;;;;;;;;;;;;;5071736;28;19925;-59
2022/01/27 02:32:25;;;;;;;;;;;;;;;;;;5077895;28;19977;-59
2022/01/27 02:34:51;;;;;;;;;;;;;;;;;;5091689;28;19924;-59
2022/01/27 02:37:17;;;;;;;;;;;;;;;;;;5091767;28;19924;-59
2022/01/27 02:39:43;;;;;;;;;;;;;;;;;;5090828;28;20386;-59
2022/01/27 02:42:10;;;;;;;;;;;;;;;;;;5091931;28;19925;-59
2022/01/27 02:44:36;;;;;;;;;;;;;;;;;;5091394;28;19927;-59
2022/01/27 02:47:02;;;;;;;;;;;;;;;;;;5090995;28;19926;-59
2022/01/27 02:49:28;;;;;;;;;;;;;;;;;;5091212;28;19930;-59
2022/01/27 02:51:54;;;;;;;;;;;;;;;;;;5091878;28;19924;-59
2022/01/27 02:54:20;;;;;;;;;;;;;;;;;;5091009;28;19928;-59
2022/01/27 02:56:47;;;;;;;;;;;;;;;;;;5091426;28;19924;-59
2022/01/27 02:59:13;;;;;;;;;;;;;;;;;;5091502;28;19935;-58
2022/01/27 03:01:39;;;;;;;;;;;;;;;;;;5090530;28;19985;-58
2022/01/27 03:04:05;;;;;;;;;;;;;;;;;;5091363;28;20323;-58
2022/01/27 03:06:31;;;;;;;;;;;;;;;;;;5090277;28;20437;-58
2022/01/27 03:08:57;;;;;;;;;;;;;;;;;;5091550;28;19977;-58
2022/01/27 03:11:23;;;;;;;;;;;;;;;;;;5091472;28;19931;-58
2022/01/27 03:13:49;;;;;;;;;;;;;;;;;;5090798;28;19925;-59
2022/01/27 03:16:15;;;;;;;;;;;;;;;;;;5091491;28;19950;-59
2022/01/27 03:18:42;;;;;;;;;;;;;;;;;;5091038;28;19924;-59
2022/01/27 03:21:09;;;;;;;;;;;;;;;;;;5090864;28;19970;-59
2022/01/27 03:23:35;;;;;;;;;;;;;;;;;;5090871;28;20367;-59
2022/01/27 03:26:01;;;;;;;;;;;;;;;;;;5092632;28;19924;-59
2022/01/27 03:28:29;;;;;;;;;;;;;;;;;;5093794;28;20417;-59
2022/01/27 03:30:55;;;;;;;;;;;;;;;;;;5094723;28;19931;-58
2022/01/27 03:33:21;;;;;;;;;;;;;;;;;;5094895;28;19978;-58
2022/01/27 03:35:47;;;;;;;;;;;;;;;;;;5093954;28;19923;-58
2022/01/27 03:38:13;;;;;;;;;;;;;;;;;;5095026;28;19928;-59
2022/01/27 03:40:39;;;;;;;;;;;;;;;;;;5094618;28;19928;-58
2022/01/27 03:43:09;;;;;;;;;;;;;;;;;;5094048;28;19924;-58
2022/01/27 03:45:35;;;;;;;;;;;;;;;;;;5094385;28;20019;-58
2022/01/27 03:48:01;;;;;;;;;;;;;;;;;;5094691;28;19954;-58
2022/01/27 03:50:27;;;;;;;;;;;;;;;;;;5093707;28;20006;-58
2022/01/27 03:52:53;;;;;;;;;;;;;;;;;;5094528;28;20442;-58
2022/01/27 03:55:19;;;;;;;;;;;;;;;;;;5094347;28;19924;-58
2022/01/27 03:57:45;;;;;;;;;;;;;;;;;;5093522;28;19924;-58
2022/01/27 04:00:11;;;;;;;;;;;;;;;;;;5094305;28;19998;-59
2022/01/27 04:02:41;;;;;;;;;;;;;;;;;;5094465;28;19924;-59
2022/01/27 04:05:08;;;;;;;;;;;;;;;;;;5094294;28;19947;-59
2022/01/27 04:07:34;;;;;;;;;;;;;;;;;;5094078;28;19928;-59
2022/01/27 04:10:00;;;;;;;;;;;;;;;;;;5093688;28;19924;-59
2022/01/27 04:12:26;;;;;;;;;;;;;;;;;;5093947;28;19924;-59
2022/01/27 04:14:52;;;;;;;;;;;;;;;;;;5094216;28;19924;-59
2022/01/27 04:17:18;;;;;;;;;;;;;;;;;;5093558;28;19948;-58
2022/01/27 04:19:44;;;;;;;;;;;;;;;;;;5093906;28;19981;-58
2022/01/27 04:22:10;;;;;;;;;;;;;;;;;;5094092;28;19928;-58
2022/01/27 04:24:36;;;;;;;;;;;;;;;;;;5093056;28;19924;-58
2022/01/27 04:27:06;;;;;;;;;;;;;;;;;;5094030;28;19977;-59
2022/01/27 04:29:36;;;;;;;;;;;;;;;;;;5093842;28;19924;-58
2022/01/27 04:32:07;;;;;;;;;;;;;;;;;;5093358;28;19949;-58
2022/01/27 04:34:35;;;;;;;;;;;;;;;;;;5093617;28;19947;-58
2022/01/27 04:37:02;;;;;;;;;;;;;;;;;;5093709;28;19958;-58
2022/01/27 04:39:34;;;;;;;;;;;;;;;;;;5092770;28;19931;-58
2022/01/27 04:42:06;;;;;;;;;;;;;;;;;;5093657;28;19962;-58
2022/01/27 04:44:37;;;;;;;;;;;;;;;;;;5093624;28;19931;-58
2022/01/27 04:47:08;;;;;;;;;;;;;;;;;;5092850;28;20371;-58
2022/01/27 04:49:34;;;;;;;;;;;;;;;;;;5093216;28;20030;-58
2022/01/27 04:52:00;;;;;;;;;;;;;;;;;;5092806;28;19924;-59
2022/01/27 04:54:32;;;;;;;;;;;;;;;;;;5093024;28;19994;-58
2022/01/27 04:57:00;;;;;;;;;;;;;;;;;;5093567;28;19927;-58
2022/01/27 04:59:29;;;;;;;;;;;;;;;;;;5092369;28;20302;-59
2022/01/27 05:02:00;;;;;;;;;;;;;;;;;;5093130;28;20413;-58
2022/01/27 05:04:30;;;;;;;;;;;;;;;;;;5092840;28;20378;-59
2022/01/27 05:06:56;;;;;;;;;;;;;;;;;;5091678;28;20275;-58
2022/01/27 05:09:23;;;;;;;;;;;;;;;;;;5093177;28;19924;-59
2022/01/27 05:11:53;;;;;;;;;;;;;;;;;;5092739;28;20442;-59
2022/01/27 05:14:22;;;;;;;;;;;;;;;;;;5092361;28;19924;-58
2022/01/27 05:16:48;;;;;;;;;;;;;;;;;;5092227;28;19971;-59
2022/01/27 05:19:14;;;;;;;;;;;;;;;;;;5093004;28;19932;-59
2022/01/27 05:21:41;;;;;;;;;;;;;;;;;;5091367;28;19928;-59
2022/01/27 05:24:07;;;;;;;;;;;;;;;;;;5092895;28;20363;-59
2022/01/27 05:26:33;;;;;;;;;;;;;;;;;;5092590;28;19928;-58
2022/01/27 05:28:59;;;;;;;;;;;;;;;;;;5092058;28;19924;-59
2022/01/27 05:31:25;;;;;;;;;;;;;;;;;;5092229;28;19932;-58
2022/01/27 05:33:51;;;;;;;;;;;;;;;;;;5092804;28;19924;-57
2022/01/27 05:36:18;;;;;;;;;;;;;;;;;;5091080;28;20371;-58
2022/01/27 05:38:44;;;;;;;;;;;;;;;;;;5092078;28;19985;-58
2022/01/27 05:41:10;;;;;;;;;;;;;;;;;;5091959;28;20424;-58
2022/01/27 05:43:36;;;;;;;;;;;;;;;;;;5091896;28;19924;-58
2022/01/27 05:46:02;;;;;;;;;;;;;;;;;;5092108;28;19924;-59
2022/01/27 05:48:28;;;;;;;;;;;;;;;;;;5090315;28;20045;-59
2022/01/27 05:50:54;;;;;;;;;;;;;;;;;;5092237;28;19931;-59
2022/01/27 05:53:20;;;;;;;;;;;;;;;;;;5092598;28;19946;-58
2022/01/27 05:55:46;;;;;;;;;;;;;;;;;;5091376;28;19924;-58
2022/01/27 05:58:12;;;;;;;;;;;;;;;;;;5092425;28;20271;-59
2022/01/27 06:00:39;;;;;;;;;;;;;;;;;;5092000;28;19977;-58
2022/01/27 06:03:05;;;;;;;;;;;;;;;;;;5091429;28;20333;-58
2022/01/27 06:05:31;;;;;;;;;;;;;;;;;;5091885;28;19928;-58
2022/01/27 06:07:57;;;;;;;;;;;;;;;;;;5091945;28;19924;-58
2022/01/27 06:10:23;;;;;;;;;;;;;;;;;;5091545;28;19927;-59
2022/01/27 06:12:49;;;;;;;;;;;;;;;;;;5091976;28;20396;-59
2022/01/27 06:15:15;;;;;;;;;;;;;;;;;;5092079;28;20326;-59
2022/01/27 06:17:41;;;;;;;;;;;;;;;;;;5090828;28;19924;-58
2022/01/27 06:20:07;;;;;;;;;;;;;;;;;;5091908;28;19974;-58
2022/01/27 06:22:33;;;;;;;;;;;;;;;;;;5091487;28;19927;-58
2022/01/27 06:24:59;;;;;;;;;;;;;;;;;;5091228;28;19924;-58
2022/01/27 06:27:26;;;;;;;;;;;;;;;;;;5091445;28;19981;-59
2022/01/27 06:29:52;;;;;;;;;;;;;;;;;;5091887;28;19924;-58
2022/01/27 06:32:18;;;;;;;;;;;;;;;;;;5090301;28;19969;-58
2022/01/27 06:34:44;;;;;;;;;;;;;;;;;;5091307;28;19932;-58
2022/01/27 06:37:10;;;;;;;;;;;;;;;;;;5091314;28;19924;-58
2022/01/27 06:39:36;;;;;;;;;;;;;;;;;;5090433;28;19924;-58
2022/01/27 06:42:05;;;;;;;;;;;;;;;;;;5091684;28;19924;-59
2022/01/27 06:44:31;;;;;;;;;;;;;;;;;;5090510;28;20459;-58
2022/01/27 06:46:57;;;;;;;;;;;;;;;;;;5068569;28;19970;-59
2022/01/27 06:49:23;;;;;;;;;;;;;;;;;;5090193;28;20363;-59
2022/01/27 06:51:49;;;;;;;;;;;;;;;;;;5090208;28;19928;-59
2022/01/27 06:54:17;;;;;;;;;;;;;;;;;;5091055;28;19932;-59
2022/01/27 06:56:43;;;;;;;;;;;;;;;;;;5091019;28;20034;-58
2022/01/27 06:59:09;;;;;;;;;;;;;;;;;;5090743;28;19997;-58
2022/01/27 07:01:35;;;;;;;;;;;;;;;;;;5094120;28;19928;-58
2022/01/27 07:04:02;;;;;;;;;;;;;;;;;;5095328;28;19924;-57
2022/01/27 07:06:28;;;;;;;;;;;;;;;;;;5094270;28;20438;-58
2022/01/27 07:08:54;;;;;;;;;;;;;;;;;;5095219;28;19977;-58
2022/01/27 07:11:20;;;;;;;;;;;;;;;;;;5095219;28;20017;-58
2022/01/27 07:13:46;;;;;;;;;;;;;;;;;;5093986;28;19924;-58
2022/01/27 07:16:12;;;;;;;;;;;;;;;;;;5094643;28;19977;-59
2022/01/27 07:18:38;;;;;;;;;;;;;;;;;;5094630;28;20376;-59
2022/01/27 07:21:04;;;;;;;;;;;;;;;;;;5094496;28;20023;-58
2022/01/27 07:23:30;;;;;;;;;;;;;;;;;;5093920;28;19928;-58
2022/01/27 07:25:56;;;;;;;;;;;;;;;;;;5094824;28;19924;-59
2022/01/27 07:28:23;;;;;;;;;;;;;;;;;;5094036;28;19924;-58
2022/01/27 07:30:49;;;;;;;;;;;;;;;;;;5094887;28;19928;-57
2022/01/27 07:33:15;;;;;;;;;;;;;;;;;;5094663;28;19924;-59
2022/01/27 07:35:41;;;;;;;;;;;;;;;;;;5094009;28;19978;-58
2022/01/27 07:38:07;;;;;;;;;;;;;;;;;;5094933;28;19931;-59
2022/01/27 07:40:33;;;;;;;;;;;;;;;;;;5094574;28;19985;-59
2022/01/27 07:42:59;;;;;;;;;;;;;;;;;;5094172;28;20340;-58
2022/01/27 07:45:25;;;;;;;;;;;;;;;;;;5094705;28;19932;-58
2022/01/27 07:47:52;;;;;;;;;;;;;;;;;;5094111;28;20366;-58
2022/01/27 07:50:18;;;;;;;;;;;;;;;;;;5094846;28;20035;-58
2022/01/27 07:52:45;;;;;;;;;;;;;;;;;;5094341;28;19955;-58
2022/01/27 07:55:11;;;;;;;;;;;;;;;;;;5094518;28;19924;-59
2022/01/27 07:57:37;;;;;;;;;;;;;;;;;;5094238;28;20374;-58
2022/01/27 08:00:04;;;;;;;;;;;;;;;;;;5094950;28;19981;-58
2022/01/27 08:02:30;;;;;;;;;;;;;;;;;;5093653;28;19924;-58
2022/01/27 08:04:56;;;;;;;;;;;;;;;;;;5094729;28;20453;-59
2022/01/27 08:07:22;;;;;;;;;;;;;;;;;;5094691;28;19977;-59
2022/01/27 08:09:48;;;;;;;;;;;;;;;;;;5093268;28;19928;-59
2022/01/27 08:12:14;;;;;;;;;;;;;;;;;;5093800;28;20378;-58
2022/01/27 08:14:40;;;;;;;;;;;;;;;;;;5094319;28;19928;-58
2022/01/27 08:17:06;;;;;;;;;;;;;;;;;;5093832;28;19928;-58
2022/01/27 08:19:32;;;;;;;;;;;;;;;;;;5094024;28;19928;-58
2022/01/27 08:21:58;;;;;;;;;;;;;;;;;;5094358;28;19928;-58
2022/01/27 08:24:24;;;;;;;;;;;;;;;;;;5093277;28;20271;-59
2022/01/27 08:26:57;;;;;;;;;;;;;;;;;;5094318;28;19977;-59
2022/01/27 08:29:29;;;;;;;;;;;;;;;;;;5094046;28;20306;-58
2022/01/27 08:31:58;;;;;;;;;;;;;;;;;;5093467;28;20390;-58
2022/01/27 08:34:30;;;;;;;;;;;;;;;;;;5093638;28;20366;-58
2022/01/27 08:36:56;;;;;;;;;;;;;;;;;;5094004;28;19924;-58
2022/01/27 08:39:22;;;;;;;;;;;;;;;;;;5093066;28;20297;-58
2022/01/27 08:41:48;;;;;;;;;;;;;;;;;;5093918;28;19977;-59
2022/01/27 08:44:14;;;;;;;;;;;;;;;;;;5093035;28;20336;-58
2022/01/27 08:46:40;;;;;;;;;;;;;;;;;;5093803;28;19924;-58
2022/01/27 08:49:07;;;;;;;;;;;;;;;;;;5093636;28;19930;-59
2022/01/27 08:51:33;;;;;;;;;;;;;;;;;;5092737;28;19978;-58
2022/01/27 08:53:59;;;;;;;;;;;;;;;;;;5093617;28;19924;-58
2022/01/27 08:56:25;;;;;;;;;;;;;;;;;;5093213;28;19957;-59
2022/01/27 08:58:51;;;;;;;;;;;;;;;;;;5093046;28;19924;-59
2022/01/27 09:01:17;;;;;;;;;;;;;;;;;;5093652;28;19969;-58
2022/01/27 09:03:45;;;;;;;;;;;;;;;;;;5093140;28;20021;-58
2022/01/27 09:06:11;;;;;;;;;;;;;;;;;;5092738;28;19924;-58
2022/01/27 09:08:37;;;;;;;;;;;;;;;;;;5092901;28;19973;-59
2022/01/27 09:11:03;;;;;;;;;;;;;;;;;;5093639;28;19977;-58
2022/01/27 09:13:29;;;;;;;;;;;;;;;;;;5092196;28;19924;-59
2022/01/27 09:15:59;;;;;;;;;;;;;;;;;;5093370;28;19928;-58
2022/01/27 09:18:25;;;;;;;;;;;;;;;;;;5093070;28;19928;-58
2022/01/27 09:20:51;;;;;;;;;;;;;;;;;;5092330;28;19924;-58
2022/01/27 09:23:17;;;;;;;;;;;;;;;;;;5092079;28;19970;-58
2022/01/27 09:25:45;;;;;;;;;;;;;;;;;;5092833;28;19931;-58
2022/01/27 09:28:11;;;;;;;;;;;;;;;;;;5092577;28;20378;-58
2022/01/27 09:30:37;;;;;;;;;;;;;;;;;;5092606;28;19924;-59
2022/01/27 09:33:03;;;;;;;;;;;;;;;;;;5092914;28;19950;-58
2022/01/27 09:35:31;;;;;;;;;;;;;;;;;;5091712;28;19931;-58
2022/01/27 09:37:57;;;;;;;;;;;;;;;;;;5093128;28;20282;-58
2022/01/27 09:40:23;;;;;;;;;;;;;;;;;;5092390;28;19924;-58
2022/01/27 09:42:51;;;;;;;;;;;;;;;;;;5092852;28;20444;-58
2022/01/27 09:45:18;;;;;;;;;;;;;;;;;;5092686;28;20340;-58
2022/01/27 09:47:46;;;;;;;;;;;;;;;;;;5091715;28;20248;-59
2022/01/27 09:50:25;;;;;;;;;;;;;;;;;;5092431;28;20362;-58
2022/01/27 09:52:51;;;;;;;;;;;;;;;;;;5092975;28;20275;-58
2022/01/27 09:55:18;;;;;;;;;;;;;;;;;;5092167;28;19950;-58
2022/01/27 09:57:45;;;;;;;;;;;;;;;;;;5092290;28;20889;-59
2022/01/27 10:00:11;;;;;;;;;;;;;;;;;;5092414;28;19953;-58
2022/01/27 10:02:39;;;;;;;;;;;;;;;;;;5091308;28;20276;-58
2022/01/27 10:05:05;;;;;;;;;;;;;;;;;;5092216;28;20006;-58
2022/01/27 10:07:33;;;;;;;;;;;;;;;;;;5092252;28;20374;-59
2022/01/27 10:09:59;;;;;;;;;;;;;;;;;;5091406;28;19928;-58
2022/01/27 10:12:25;;;;;;;;;;;;;;;;;;5092082;28;19924;-59
2022/01/27 10:14:51;;;;;;;;;;;;;;;;;;5092219;28;19924;-58
2022/01/27 10:17:18;;;;;;;;;;;;;;;;;;5091451;28;20419;-59
2022/01/27 10:19:44;;;;;;;;;;;;;;;;;;5091745;28;20481;-59
2022/01/27 10:22:10;;;;;;;;;;;;;;;;;;5092025;28;19924;-58
2022/01/27 10:24:36;;;;;;;;;;;;;;;;;;5091147;28;19925;-58
2022/01/27 10:27:02;;;;;;;;;;;;;;;;;;5092164;28;19924;-59
2022/01/27 10:29:37;;;;;;;;;;;;;;;;;;5091530;28;19930;-58
2022/01/27 10:32:03;;;;;;;;;;;;;;;;;;5091869;28;19930;-59
2022/01/27 10:34:29;;;;;;;;;;;;;;;;;;5091679;28;19928;-58
2022/01/27 10:36:55;;;;;;;;;;;;;;;;;;5091287;28;20288;-58
2022/01/27 10:39:21;;;;;;;;;;;;;;;;;;5092144;28;19950;-58
2022/01/27 10:41:47;;;;;;;;;;;;;;;;;;5091707;28;19986;-58
2022/01/27 10:44:14;;;;;;;;;;;;;;;;;;5091176;28;20358;-58
2022/01/27 10:46:45;;;;;;;;;;;;;;;;;;5091698;28;19932;-59
2022/01/27 10:49:21;;;;;;;;;;;;;;;;;;5092107;28;19985;-58
2022/01/27 10:51:51;;;;;;;;;;;;;;;;;;5090815;28;19932;-58
2022/01/27 10:54:23;;;;;;;;;;;;;;;;;;5091899;28;19966;-58
2022/01/27 10:56:49;;;;;;;;;;;;;;;;;;5091472;28;20023;-58
2022/01/27 10:59:15;;;;;;;;;;;;;;;;;;5090968;28;19978;-58
2022/01/27 11:01:41;;;;;;;;;;;;;;;;;;5091244;28;19924;-58
2022/01/27 11:04:07;;;;;;;;;;;;;;;;;;5091886;28;19924;-58
2022/01/27 11:06:34;;;;;;;;;;;;;;;;;;5090374;28;20328;-59
2022/01/27 11:09:05;;;;;;;;;;;;;;;;;;5091716;28;20355;-58
2022/01/27 11:11:31;;;;;;;;;;;;;;;;;;5091312;28;19924;-58
2022/01/27 11:13:59;;;;;;;;;;;;;;;;;;5090644;28;19969;-58
2022/01/27 11:16:30;;;;;;;;;;;;;;;;;;5091333;28;19955;-58
2022/01/27 11:19:11;;;;;;;;;;;;;;;;;;5090808;28;20389;-59
2022/01/27 11:21:40;;;;;;;;;;;;;;;;;;5091214;28;19959;-58
2022/01/27 11:24:13;;;;;;;;;;;;;;;;;;5091517;28;19931;-58
2022/01/27 11:26:40;;;;;;;;;;;;;;;;;;5090574;28;20298;-58
2022/01/27 11:29:06;;;;;;;;;;;;;;;;;;5091547;28;19956;-58
2022/01/27 11:31:32;;;;;;;;;;;;;;;;;;5091140;28;19924;-58
2022/01/27 11:33:59;;;;;;;;;;;;;;;;;;5070535;28;20005;-58
2022/01/27 11:36:25;;;;;;;;;;;;;;;;;;5070739;28;19931;-58
2022/01/27 11:38:51;;;;;;;;;;;;;;;;;;5071351;28;19993;-58
2022/01/27 11:41:17;;;;;;;;;;;;;;;;;;5070616;28;19979;-58
2022/01/27 11:43:43;;;;;;;;;;;;;;;;;;5071183;28;19929;-58
2022/01/27 11:46:09;;;;;;;;;;;;;;;;;;5071151;28;19974;-58
2022/01/27 11:48:35;;;;;;;;;;;;;;;;;;5073596;28;19924;-58
2022/01/27 11:51:01;;;;;;;;;;;;;;;;;;5074564;28;19925;-58
2022/01/27 11:53:27;;;;;;;;;;;;;;;;;;5074627;28;19925;-58
2022/01/27 11:55:54;;;;;;;;;;;;;;;;;;5073978;28;19924;-58
2022/01/27 11:58:20;;;;;;;;;;;;;;;;;;5074572;28;20442;-58
2022/01/27 12:00:46;;;;;;;;;;;;;;;;;;5083727;28;20706;-58
2022/01/27 12:03:13;;;;;;;;;;;;;;;;;;5094001;28;19970;-58
2022/01/27 12:05:39;;;;;;;;;;;;;;;;;;5094401;28;20283;-58
2022/01/27 12:08:05;;;;;;;;;;;;;;;;;;5093818;28;19928;-58
2022/01/27 12:10:31;;;;;;;;;;;;;;;;;;5094410;28;19924;-58
2022/01/27 12:12:57;;;;;;;;;;;;;;;;;;5094571;28;19978;-58
2022/01/27 12:15:23;;;;;;;;;;;;;;;;;;5093721;28;20387;-58
2022/01/27 12:17:50;;;;;;;;;;;;;;;;;;5094465;28;20015;-58
2022/01/27 12:20:16;;;;;;;;;;;;;;;;;;5094274;28;19924;-58
2022/01/27 12:22:44;;;;;;;;;;;;;;;;;;5092976;28;19930;-58
2022/01/27 12:25:12;;;;;;;;;;;;;;;;;;5094441;28;20018;-58
2022/01/27 12:27:38;;;;;;;;;;;;;;;;;;5093783;28;19925;-58
2022/01/27 12:30:04;;;;;;;;;;;;;;;;;;5093301;28;20432;-58
2022/01/27 12:32:31;;;;;;;;;;;;;;;;;;5093641;28;19932;-58
2022/01/27 12:34:57;;;;;;;;;;;;;;;;;;5094025;28;20366;-58
2022/01/27 12:37:23;;;;;;;;;;;;;;;;;;5093401;28;20219;-58
2022/01/27 12:39:49;;;;;;;;;;;;;;;;;;5094127;28;19934;-58
2022/01/27 12:42:17;;;;;;;;;;;;;;;;;;5093920;28;19924;-59
2022/01/27 12:44:43;;;;;;;;;;;;;;;;;;5092849;28;20344;-58
2022/01/27 12:47:10;;;;;;;;;;;;;;;;;;5093844;28;19928;-58
2022/01/27 12:49:38;;;;;;;;;;;;;;;;;;5093401;28;19924;-58
2022/01/27 12:52:06;;;;;;;;;;;;;;;;;;5092930;28;19924;-58
2022/01/27 12:54:33;;;;;;;;;;;;;;;;;;5093609;28;19977;-58
2022/01/27 12:56:59;;;;;;;;;;;;;;;;;;5093579;28;20344;-58
2022/01/27 12:59:25;;;;;;;;;;;;;;;;;;5092482;28;19924;-58
2022/01/27 13:01:51;;;;;;;;;;;;;;;;;;5093434;28;20452;-59
2022/01/27 13:04:17;;;;;;;;;;;;;;;;;;5093123;28;19931;-58
2022/01/27 13:06:43;;;;;;;;;;;;;;;;;;5092940;28;20382;-58
2022/01/27 13:09:09;;;;;;;;;;;;;;;;;;5093632;28;19974;-58
2022/01/27 13:11:35;;;;;;;;;;;;;;;;;;5092287;28;19931;-58
2022/01/27 13:14:01;;;;;;;;;;;;;;;;;;5093194;28;19924;-58
2022/01/27 13:16:34;;;;;;;;;;;;;;;;;;5092911;28;19924;-58
2022/01/27 13:19:06;;;;;;;;;;;;;;;;;;5092585;28;19924;-58
2022/01/27 13:21:35;;;;;;;;;;;;;;;;;;5093030;28;20014;-58
2022/01/27 13:24:01;;;;;;;;;;;;;;;;;;5093062;28;19924;-58
2022/01/27 13:26:27;;;;;;;;;;;;;;;;;;5092042;28;19928;-58
2022/01/27 13:28:53;;;;;;;;;;;;;;;;;;5092786;28;19924;-58
2022/01/27 13:31:19;;;;;;;;;;;;;;;;;;5093135;28;19993;-58
2022/01/27 13:33:46;;;;;;;;;;;;;;;;;;5091888;28;19924;-58
2022/01/27 13:36:12;;;;;;;;;;;;;;;;;;5093140;28;19969;-58
2022/01/27 13:38:49;;;;;;;;;;;;;;;;;;5092420;28;19931;-58
2022/01/27 13:41:22;;;;;;;;;;;;;;;;;;5092836;28;19931;-59
2022/01/27 13:43:48;;;;;;;;;;;;;;;;;;5092264;28;19924;-58
2022/01/27 13:46:14;;;;;;;;;;;;;;;;;;5092813;28;20332;-58
2022/01/27 13:48:40;;;;;;;;;;;;;;;;;;5091739;28;19978;-58
2022/01/27 13:51:07;;;;;;;;;;;;;;;;;;5092626;28;20332;-58
2022/01/27 13:53:33;;;;;;;;;;;;;;;;;;5091421;28;19928;-58
2022/01/27 13:55:59;;;;;;;;;;;;;;;;;;5092538;28;19986;-58
2022/01/27 13:58:26;;;;;;;;;;;;;;;;;;5092285;28;20057;-58
2022/01/27 14:00:53;;;;;;;;;;;;;;;;;;5091862;28;19981;-58
2022/01/27 14:03:19;;;;;;;;;;;;;;;;;;5092437;28;19924;-59
2022/01/27 14:05:45;;;;;;;;;;;;;;;;;;5092138;28;19969;-59
2022/01/27 14:08:11;;;;;;;;;;;;;;;;;;5091623;28;19986;-59
2022/01/27 14:10:42;;;;;;;;;;;;;;;;;;5091408;28;19970;-58
2022/01/27 14:13:10;;;;;;;;;;;;;;;;;;5092345;28;19959;-58
2022/01/27 14:15:36;;;;;;;;;;;;;;;;;;5091278;28;19929;-58
2022/01/27 14:18:02;;;;;;;;;;;;;;;;;;5092200;28;19932;-58
2022/01/27 14:20:28;;;;;;;;;;;;;;;;;;5092192;28;20332;-59
2022/01/27 14:22:54;;;;;;;;;;;;;;;;;;5091045;28;19970;-58
2022/01/27 14:25:23;;;;;;;;;;;;;;;;;;5092080;28;20382;-59
2022/01/27 14:27:49;;;;;;;;;;;;;;;;;;5091692;28;20359;-59
2022/01/27 14:30:16;;;;;;;;;;;;;;;;;;5091278;28;19970;-59
2022/01/27 14:32:42;;;;;;;;;;;;;;;;;;5091616;28;19924;-59
2022/01/27 14:35:08;;;;;;;;;;;;;;;;;;5092124;28;19924;-58
2022/01/27 14:37:35;;;;;;;;;;;;;;;;;;5090906;28;19924;-59
2022/01/27 14:40:02;;;;;;;;;;;;;;;;;;5091801;28;19924;-58
2022/01/27 14:42:28;;;;;;;;;;;;;;;;;;5091823;28;19967;-58
2022/01/27 14:44:54;;;;;;;;;;;;;;;;;;5091129;28;19978;-58
2022/01/27 14:47:20;;;;;;;;;;;;;;;;;;5091807;28;19928;-58
2022/01/27 14:49:51;;;;;;;;;;;;;;;;;;5090970;28;19971;-58
2022/01/27 14:52:20;;;;;;;;;;;;;;;;;;5091823;28;19924;-58
2022/01/27 14:54:46;;;;;;;;;;;;;;;;;;5091563;28;20346;-58
2022/01/27 14:57:12;;;;;;;;;;;;;;;;;;5091207;28;19928;-58
2022/01/27 14:59:39;;;;;;;;;;;;;;;;;;5091175;28;20431;-58
2022/01/27 15:02:05;;;;;;;;;;;;;;;;;;5091846;28;19931;-58
2022/01/27 15:04:34;;;;;;;;;;;;;;;;;;5090551;28;20390;-58
2022/01/27 15:07:00;;;;;;;;;;;;;;;;;;5091674;28;20443;-58
2022/01/27 15:09:26;;;;;;;;;;;;;;;;;;5091412;28;19928;-58
2022/01/27 15:11:52;;;;;;;;;;;;;;;;;;5091098;28;20313;-58
2022/01/27 15:19:46;;;;;;;;;;;;;;;;;;5090569;28;19935;-58
2022/01/27 15:22:12;;;;;;;;;;;;;;;;;;5093016;28;19951;-58
2022/01/27 15:24:40;;;;;;;;;;;;;;;;;;5095159;28;19924;-58
2022/01/27 15:27:06;;;;;;;;;;;;;;;;;;5094703;28;19924;-58
2022/01/27 15:29:35;;;;;;;;;;;;;;;;;;5095014;28;19924;-58
2022/01/27 15:32:03;;;;;;;;;;;;;;;;;;5094324;28;20394;-58
2022/01/27 15:34:29;;;;;;;;;;;;;;;;;;5095183;28;20026;-58
2022/01/27 15:36:55;;;;;;;;;;;;;;;;;;5095136;28;19924;-58
2022/01/27 15:39:22;;;;;;;;;;;;;;;;;;5094428;28;19928;-58
2022/01/27 15:41:50;;;;;;;;;;;;;;;;;;5094984;28;19925;-58
2022/01/27 15:44:17;;;;;;;;;;;;;;;;;;5094911;28;20370;-58
2022/01/27 15:46:43;;;;;;;;;;;;;;;;;;5094191;28;19924;-58
2022/01/27 15:49:09;;;;;;;;;;;;;;;;;;5095145;28;19924;-58
2022/01/27 15:51:37;;;;;;;;;;;;;;;;;;5094686;28;19936;-58
2022/01/27 15:54:03;;;;;;;;;;;;;;;;;;5094131;28;19932;-58
2022/01/27 15:56:29;;;;;;;;;;;;;;;;;;5094694;28;20340;-58
2022/01/27 15:58:55;;;;;;;;;;;;;;;;;;5094641;28;19923;-58
2022/01/27 16:01:21;;;;;;;;;;;;;;;;;;5094180;28;19994;-58
2022/01/27 16:03:47;;;;;;;;;;;;;;;;;;5094538;28;19985;-58
2022/01/27 16:06:13;;;;;;;;;;;;;;;;;;5094634;28;19925;-58
2022/01/27 16:08:40;;;;;;;;;;;;;;;;;;5093582;28;19928;-58
2022/01/27 16:11:06;;;;;;;;;;;;;;;;;;5094374;28;19925;-59
2022/01/27 16:13:33;;;;;;;;;;;;;;;;;;5094240;28;19994;-58
2022/01/27 16:15:59;;;;;;;;;;;;;;;;;;5093805;28;19932;-58
2022/01/27 16:18:25;;;;;;;;;;;;;;;;;;5093956;28;20624;-59
2022/01/27 16:20:51;;;;;;;;;;;;;;;;;;5094283;28;19928;-58
2022/01/27 16:23:17;;;;;;;;;;;;;;;;;;5093137;28;20276;-58
2022/01/27 16:25:43;;;;;;;;;;;;;;;;;;5093802;28;19966;-59
2022/01/27 16:28:09;;;;;;;;;;;;;;;;;;5093990;28;19924;-58
2022/01/27 16:30:35;;;;;;;;;;;;;;;;;;5092717;28;19932;-58
2022/01/27 16:33:01;;;;;;;;;;;;;;;;;;5093638;28;19931;-58
2022/01/27 16:35:27;;;;;;;;;;;;;;;;;;5092737;28;20341;-58
2022/01/27 16:37:53;;;;;;;;;;;;;;;;;;5093952;28;19977;-58
2022/01/27 16:40:19;;;;;;;;;;;;;;;;;;5093598;28;20374;-58
2022/01/27 16:42:45;;;;;;;;;;;;;;;;;;5092596;28;19928;-58
2022/01/27 16:45:12;;;;;;;;;;;;;;;;;;5093790;28;19985;-58
2022/01/27 16:47:38;;;;;;;;;;;;;;;;;;5093626;28;19928;-58
2022/01/27 16:50:04;;;;;;;;;;;;;;;;;;5092906;28;19924;-58
2022/01/27 16:52:30;;;;;;;;;;;;;;;;;;5093228;28;20052;-58
2022/01/27 16:54:56;;;;;;;;;;;;;;;;;;5093430;28;19928;-58
2022/01/27 16:57:22;;;;;;;;;;;;;;;;;;5092543;28;19924;-58
2022/01/27 16:59:48;;;;;;;;;;;;;;;;;;5093189;28;19924;-59
2022/01/27 17:02:14;;;;;;;;;;;;;;;;;;5093513;28;19928;-59
2022/01/27 17:04:41;;;;;;;;;;;;;;;;;;5092391;28;19924;-59
2022/01/27 17:07:07;;;;;;;;;;;;;;;;;;5093173;28;19931;-59
2022/01/27 17:09:33;;;;;;;;;;;;;;;;;;5092910;28;19954;-59